Time;durP1;ratioP1;P1;durP2;ratioP2;P2;SDS_P1;SDS_P2;PMS_P1;PMS_P2;Temp;Humidity;BMP_temperature;BMP_pressure;BME280_temperature;BME280_humidity;BME280_pressure;Samples;Min_cycle;Max_cycle;Signal;HPM_P1;HPM_P2
2023/10/08 00:02:26;;;;;;;2.97;2.10;;;13.70;79.00;;;;;;5074849;28;20650;-75
2023/10/08 00:04:54;;;;;;;6.40;2.77;;;13.70;79.60;;;;;;5073355;28;20632;-76
2023/10/08 00:07:21;;;;;;;2.57;2.10;;;13.70;77.20;;;;;;5075837;28;21082;-76
2023/10/08 00:09:51;;;;;;;5.37;1.57;;;13.80;76.50;;;;;;5075072;28;20631;-75
2023/10/08 00:12:18;;;;;;;3.80;3.10;;;13.90;75.80;;;;;;5074556;28;20621;-76
2023/10/08 00:14:49;;;;;;;3.70;2.30;;;13.90;76.30;;;;;;5075557;28;20629;-75
2023/10/08 00:17:16;;;;;;;2.93;2.10;;;14.00;75.10;;;;;;5074574;28;20688;-75
2023/10/08 00:19:43;;;;;;;3.40;2.30;;;14.00;74.80;;;;;;5076000;28;21241;-76
2023/10/08 00:22:13;;;;;;;2.43;2.00;;;14.10;73.60;;;;;;5072082;28;20655;-76
2023/10/08 00:24:41;;;;;;;6.77;3.23;;;14.10;74.30;;;;;;5074128;28;20620;-76
2023/10/08 00:27:09;;;;;;;7.50;3.87;;;14.20;73.90;;;;;;5073123;28;20648;-76
2023/10/08 00:29:39;;;;;;;3.27;2.80;;;14.20;74.20;;;;;;5074172;28;20624;-76
2023/10/08 00:32:12;;;;;;;3.90;2.50;;;14.10;75.10;;;;;;5074366;28;20625;-76
2023/10/08 00:34:41;;;;;;;3.20;2.30;;;14.10;75.00;;;;;;5073744;28;20972;-76
2023/10/08 00:37:10;;;;;;;3.10;2.40;;;14.10;74.50;;;;;;5072745;28;21167;-76
2023/10/08 00:39:37;;;;;;;3.70;2.00;;;14.10;75.90;;;;;;5073437;28;20645;-76
2023/10/08 00:42:07;;;;;;;6.17;2.40;;;14.10;75.90;;;;;;5074008;28;21046;-75
2023/10/08 00:44:38;;;;;;;4.23;2.70;;;14.00;76.00;;;;;;5074089;28;20719;-76
2023/10/08 00:47:06;;;;;;;2.93;2.20;;;14.00;75.20;;;;;;5078494;28;20729;-75
2023/10/08 00:49:47;;;;;;;5.43;3.30;;;14.10;73.50;;;;;;5079121;28;20987;-76
2023/10/08 00:52:30;;;;;;;2.00;1.77;;;14.20;74.60;;;;;;5081485;28;20614;-76
2023/10/08 00:55:09;;;;;;;2.93;2.13;;;14.10;76.20;;;;;;5077868;28;20624;-75
2023/10/08 00:57:37;;;;;;;2.67;1.60;;;14.10;76.50;;;;;;5078530;28;20751;-76
2023/10/08 01:00:12;;;;;;;4.90;2.70;;;14.20;75.70;;;;;;5077833;28;21197;-76
2023/10/08 01:02:45;;;;;;;3.30;2.23;;;14.10;76.20;;;;;;5076807;28;20719;-75
2023/10/08 01:05:14;;;;;;;3.10;2.30;;;14.20;74.80;;;;;;5078680;28;20672;-76
2023/10/08 01:07:45;;;;;;;3.60;2.77;;;14.20;75.10;;;;;;5076874;28;20684;-76
2023/10/08 01:10:19;;;;;;;4.30;2.00;;;14.20;75.80;;;;;;5075956;28;20631;-76
2023/10/08 01:12:56;;;;;;;3.20;2.37;;;14.20;76.60;;;;;;5078528;28;20659;-75
2023/10/08 01:15:28;;;;;;;3.60;2.30;;;14.20;77.30;;;;;;5078642;28;20615;-75
2023/10/08 01:18:00;;;;;;;2.20;1.90;;;14.10;76.80;;;;;;5077824;28;20631;-75
2023/10/08 01:20:34;;;;;;;2.63;1.90;;;14.10;77.10;;;;;;5079930;28;20713;-75
2023/10/08 01:23:09;;;;;;;2.63;1.77;;;14.10;77.50;;;;;;5077949;28;20616;-76
2023/10/08 01:25:38;;;;;;;2.60;1.70;;;14.10;77.20;;;;;;5077759;28;20625;-75
2023/10/08 01:28:14;;;;;;;1.57;1.47;;;14.00;77.70;;;;;;5077667;28;21048;-75
2023/10/08 01:30:46;;;;;;;3.57;1.80;;;14.00;77.90;;;;;;5077057;28;20990;-75
2023/10/08 01:33:15;;;;;;;2.90;2.30;;;13.90;78.50;;;;;;5077437;28;20678;-75
2023/10/08 01:35:43;;;;;;;3.63;2.10;;;13.90;78.20;;;;;;5076745;28;20674;-75
2023/10/08 01:38:14;;;;;;;2.57;2.10;;;13.90;78.50;;;;;;5077123;28;20622;-75
2023/10/08 01:40:42;;;;;;;5.17;2.60;;;13.80;78.10;;;;;;5078140;28;20618;-75
2023/10/08 01:43:13;;;;;;;3.47;2.77;;;13.70;78.70;;;;;;5077811;28;20629;-76
2023/10/08 01:45:42;;;;;;;2.00;1.80;;;13.70;79.30;;;;;;5075446;28;20627;-75
2023/10/08 01:48:10;;;;;;;3.27;2.37;;;13.60;80.20;;;;;;5076368;28;20716;-76
2023/10/08 01:50:39;;;;;;;3.77;2.47;;;13.60;80.10;;;;;;5078255;28;20717;-75
2023/10/08 01:53:10;;;;;;;2.00;1.80;;;13.50;80.30;;;;;;5077547;28;20610;-76
2023/10/08 01:55:48;;;;;;;5.60;2.40;;;13.40;80.90;;;;;;5076582;28;20775;-75
2023/10/08 01:58:17;;;;;;;2.60;1.80;;;13.40;80.90;;;;;;5077029;28;20620;-76
2023/10/08 02:00:45;;;;;;;2.37;2.00;;;13.30;80.70;;;;;;5077296;28;20621;-75
2023/10/08 02:03:15;;;;;;;2.93;1.80;;;13.30;80.90;;;;;;5079193;28;21269;-75
2023/10/08 02:05:42;;;;;;;4.53;2.47;;;13.20;80.40;;;;;;5075309;28;20615;-75
2023/10/08 02:08:10;;;;;;;3.80;1.90;;;13.20;81.00;;;;;;5075248;28;20626;-76
2023/10/08 02:10:40;;;;;;;2.07;1.87;;;13.20;82.10;;;;;;5076657;28;20621;-76
2023/10/08 02:13:08;;;;;;;2.20;2.00;;;13.20;82.00;;;;;;5076315;28;20618;-76
2023/10/08 02:15:38;;;;;;;2.27;1.77;;;13.20;81.90;;;;;;5076169;28;20625;-75
2023/10/08 02:18:07;;;;;;;5.67;2.17;;;13.20;81.70;;;;;;5077148;28;21006;-76
2023/10/08 02:20:35;;;;;;;2.17;1.70;;;13.20;81.90;;;;;;5075541;28;21242;-76
2023/10/08 02:23:05;;;;;;;2.30;1.80;;;13.00;82.90;;;;;;5075286;28;21222;-75
2023/10/08 02:25:34;;;;;;;5.17;2.87;;;12.90;83.30;;;;;;5074795;28;20632;-76
2023/10/08 02:28:05;;;;;;;2.80;2.20;;;12.90;83.00;;;;;;5075630;28;20666;-76
2023/10/08 02:30:33;;;;;;;7.00;2.20;;;12.90;82.00;;;;;;5076077;28;20626;-76
2023/10/08 02:33:01;;;;;;;3.00;2.00;;;12.90;81.90;;;;;;5074793;28;20717;-76
2023/10/08 02:35:29;;;;;;;3.17;2.23;;;12.90;82.00;;;;;;5076619;28;20616;-75
2023/10/08 02:37:57;;;;;;;3.90;2.50;;;12.90;83.40;;;;;;5076451;28;20633;-76
2023/10/08 02:40:26;;;;;;;3.33;2.03;;;12.90;83.40;;;;;;5076332;28;20687;-75
2023/10/08 02:42:57;;;;;;;2.67;1.50;;;12.90;84.50;;;;;;5076451;28;20656;-75
2023/10/08 02:45:29;;;;;;;2.10;1.90;;;12.80;85.00;;;;;;5076160;28;20617;-75
2023/10/08 02:47:58;;;;;;;1.97;1.70;;;12.70;84.50;;;;;;5076536;28;20621;-75
2023/10/08 02:50:27;;;;;;;2.83;1.83;;;12.60;84.40;;;;;;5078218;28;21061;-76
2023/10/08 02:52:53;;;;;;;2.17;1.80;;;12.60;84.90;;;;;;5076743;28;20625;-75
2023/10/08 02:55:28;;;;;;;5.90;2.20;;;12.60;84.50;;;;;;5074989;28;20624;-76
2023/10/08 02:57:56;;;;;;;3.27;2.73;;;12.60;86.10;;;;;;5076298;28;20722;-76
2023/10/08 03:00:29;;;;;;;6.47;2.50;;;12.60;85.50;;;;;;5075526;28;21164;-75
2023/10/08 03:02:57;;;;;;;2.67;1.73;;;12.60;85.00;;;;;;5075807;28;20649;-75
2023/10/08 03:05:29;;;;;;;3.43;2.07;;;12.60;84.20;;;;;;5074303;28;20718;-75
2023/10/08 03:07:57;;;;;;;3.03;1.87;;;12.50;85.20;;;;;;5076182;28;20637;-76
2023/10/08 03:10:32;;;;;;;5.80;2.57;;;12.50;84.60;;;;;;5075827;28;20664;-75
2023/10/08 03:13:04;;;;;;;3.00;2.13;;;12.50;84.90;;;;;;5075193;28;20624;-76
2023/10/08 03:15:38;;;;;;;3.10;2.40;;;12.50;84.90;;;;;;5075718;28;20628;-75
2023/10/08 03:18:10;;;;;;;2.40;1.73;;;12.50;85.70;;;;;;5074021;28;20625;-76
2023/10/08 03:20:42;;;;;;;2.97;2.27;;;12.40;85.40;;;;;;5076765;28;20622;-75
2023/10/08 03:23:22;;;;;;;2.50;2.03;;;12.30;84.90;;;;;;5075409;28;20707;-75
2023/10/08 03:25:56;;;;;;;2.50;2.20;;;12.30;85.20;;;;;;5075197;28;20617;-76
2023/10/08 03:28:24;;;;;;;3.07;2.00;;;12.30;85.10;;;;;;5076262;28;20989;-75
2023/10/08 03:30:56;;;;;;;3.67;1.80;;;12.30;84.90;;;;;;5074718;28;21192;-75
2023/10/08 03:33:24;;;;;;;2.20;1.60;;;12.30;86.00;;;;;;5075233;28;21230;-75
2023/10/08 03:35:54;;;;;;;2.43;2.10;;;12.30;86.50;;;;;;5076121;28;20621;-76
2023/10/08 03:38:28;;;;;;;2.70;1.97;;;12.30;86.10;;;;;;5076637;28;20719;-76
2023/10/08 03:41:03;;;;;;;2.20;1.77;;;12.20;87.50;;;;;;5076063;28;20640;-76
2023/10/08 03:43:42;;;;;;;1.90;1.60;;;12.20;86.60;;;;;;5075886;28;20660;-75
2023/10/08 03:46:15;;;;;;;3.57;1.90;;;12.10;87.20;;;;;;5072719;28;20633;-75
2023/10/08 03:48:44;;;;;;;3.03;2.67;;;12.10;87.50;;;;;;5074808;28;20708;-76
2023/10/08 03:51:12;;;;;;;3.57;1.97;;;11.90;88.10;;;;;;5075237;28;20671;-75
2023/10/08 03:53:57;;;;;;;3.93;2.10;;;11.90;87.50;;;;;;5072981;28;20648;-75
2023/10/08 03:56:29;;;;;;;2.97;1.97;;;12.00;87.00;;;;;;5072552;28;20652;-76
2023/10/08 03:59:00;;;;;;;3.93;1.80;;;11.80;88.40;;;;;;5075285;28;20720;-75
2023/10/08 04:01:31;;;;;;;4.40;2.00;;;11.90;88.50;;;;;;5074249;28;20653;-75
2023/10/08 04:04:00;;;;;;;3.00;2.10;;;11.90;88.70;;;;;;5075563;28;20733;-75
2023/10/08 04:06:37;;;;;;;1.90;1.70;;;11.90;89.00;;;;;;5072312;28;20618;-75
2023/10/08 04:09:23;;;;;;;2.47;2.17;;;11.90;88.70;;;;;;5074248;28;20637;-76
2023/10/08 04:11:53;;;;;;;2.70;1.97;;;11.90;88.30;;;;;;5075417;28;20617;-75
2023/10/08 04:14:23;;;;;;;2.40;2.07;;;11.80;88.00;;;;;;5074055;28;20625;-75
2023/10/08 04:16:51;;;;;;;2.50;1.53;;;11.80;88.80;;;;;;5072841;28;20736;-76
2023/10/08 04:19:20;;;;;;;3.50;2.13;;;11.90;88.40;;;;;;5073849;28;20978;-75
2023/10/08 04:21:53;;;;;;;3.07;2.20;;;11.90;89.00;;;;;;5076345;28;20653;-75
2023/10/08 04:24:28;;;;;;;2.20;1.37;;;11.80;89.10;;;;;;5072904;28;21247;-75
2023/10/08 04:26:58;;;;;;;2.10;1.90;;;11.90;88.40;;;;;;5073750;28;20613;-76
2023/10/08 04:29:25;;;;;;;5.23;2.73;;;11.90;89.70;;;;;;5073817;28;20620;-75
2023/10/08 04:32:01;;;;;;;2.90;1.63;;;11.80;88.70;;;;;;5074211;28;20622;-75
2023/10/08 04:34:30;;;;;;;2.30;1.73;;;11.80;88.10;;;;;;5073236;28;20622;-76
2023/10/08 04:37:00;;;;;;;2.93;2.30;;;11.80;88.30;;;;;;5073543;28;20788;-75
2023/10/08 04:39:32;;;;;;;2.33;1.73;;;11.90;88.80;;;;;;5073677;28;21361;-75
2023/10/08 04:42:00;;;;;;;3.40;2.00;;;11.90;87.50;;;;;;5074083;28;20726;-76
2023/10/08 04:44:31;;;;;;;3.13;1.93;;;12.20;84.50;;;;;;5074543;28;20663;-75
2023/10/08 04:47:04;;;;;;;5.73;2.50;;;12.30;82.10;;;;;;5074262;28;20627;-76
2023/10/08 04:49:34;;;;;;;4.77;2.67;;;12.50;81.70;;;;;;5073696;28;20728;-75
2023/10/08 04:52:08;;;;;;;3.60;2.20;;;12.60;81.90;;;;;;5075408;28;20645;-75
2023/10/08 04:54:40;;;;;;;4.13;2.00;;;12.60;82.10;;;;;;5074691;28;20699;-76
2023/10/08 04:57:14;;;;;;;3.47;1.70;;;12.60;82.40;;;;;;5071917;28;20625;-75
2023/10/08 04:59:42;;;;;;;4.90;2.40;;;12.50;84.10;;;;;;5073680;28;21144;-76
2023/10/08 05:02:34;;;;;;;2.50;2.30;;;12.50;84.70;;;;;;5070788;28;20706;-75
2023/10/08 05:08:07;;;;;;;4.47;2.57;;;12.40;86.30;;;;;;5069553;28;21006;-75
2023/10/08 05:10:56;;;;;;;3.13;2.50;;;12.40;85.20;;;;;;5070575;28;20629;-76
2023/10/08 05:13:30;;;;;;;3.77;2.20;;;12.40;85.90;;;;;;5069830;28;20616;-76
2023/10/08 05:16:11;;;;;;;3.13;2.40;;;12.30;87.60;;;;;;5072426;28;21054;-76
2023/10/08 05:21:28;;;;;;;3.37;1.70;;;12.30;87.20;;;;;;5073204;28;20617;-76
2023/10/08 05:24:08;;;;;;;4.50;2.50;;;12.30;87.60;;;;;;5074645;28;20653;-75
2023/10/08 05:26:41;;;;;;;3.47;2.30;;;12.20;87.60;;;;;;5073280;28;20625;-75
2023/10/08 05:32:17;;;;;;;2.97;2.10;;;12.10;88.70;;;;;;5075771;28;20621;-76
2023/10/08 05:34:42;;;;;;;4.53;2.13;;;12.10;88.00;;;;;;5075771;28;20625;-75
2023/10/08 05:37:31;;;;;;;7.07;2.33;;;12.10;87.60;;;;;;5076323;28;20613;-75
2023/10/08 05:40:12;;;;;;;4.33;2.30;;;12.00;87.80;;;;;;5076619;28;21244;-75
2023/10/08 05:42:46;;;;;;;4.00;2.03;;;12.00;88.40;;;;;;5076383;28;20645;-75
2023/10/08 05:45:14;;;;;;;1.60;1.40;;;12.00;89.00;;;;;;5078440;28;20709;-74
2023/10/08 05:48:06;;;;;;;3.00;2.07;;;11.90;90.00;;;;;;5075042;28;21079;-74
2023/10/08 05:50:39;;;;;;;3.40;2.10;;;11.90;90.20;;;;;;5076627;28;21616;-74
2023/10/08 05:53:29;;;;;;;3.83;2.40;;;11.90;90.00;;;;;;5074966;28;20620;-74
2023/10/08 05:56:16;;;;;;;3.83;1.80;;;11.90;90.10;;;;;;5077387;28;20630;-74
2023/10/08 05:58:59;;;;;;;6.63;2.00;;;11.90;90.10;;;;;;5077266;28;20643;-74
2023/10/08 06:01:39;;;;;;;3.57;1.90;;;12.00;90.00;;;;;;5077080;28;20636;-75
2023/10/08 06:04:20;;;;;;;2.30;1.70;;;12.00;89.40;;;;;;5077029;28;21041;-75
2023/10/08 06:06:57;;;;;;;1.73;1.20;;;12.00;90.00;;;;;;5076485;28;20671;-75
2023/10/08 06:09:35;;;;;;;2.83;1.77;;;12.00;88.20;;;;;;5074865;28;20637;-74
2023/10/08 06:12:19;;;;;;;4.82;3.17;;;12.10;87.00;;;;;;5073876;28;20769;-75
2023/10/08 06:20:24;;;;;;;1.70;1.60;;;12.40;85.60;;;;;;5069968;28;20706;-75
2023/10/08 06:22:52;;;;;;;2.80;1.97;;;12.50;85.80;;;;;;5075831;28;20716;-75
2023/10/08 06:25:23;;;;;;;5.30;2.83;;;12.50;86.20;;;;;;5075861;28;20629;-75
2023/10/08 06:27:54;;;;;;;2.20;2.00;;;12.50;87.50;;;;;;5075324;28;20625;-75
2023/10/08 06:30:21;;;;;;;3.10;2.70;;;12.50;89.20;;;;;;5076524;28;20629;-74
2023/10/08 06:32:50;;;;;;;3.37;1.93;;;12.40;87.60;;;;;;5076406;28;20636;-75
2023/10/08 06:35:18;;;;;;;4.90;3.10;;;12.50;86.60;;;;;;5076846;28;20614;-75
2023/10/08 06:37:49;;;;;;;2.77;2.00;;;12.50;87.30;;;;;;5075032;28;20635;-75
2023/10/08 06:43:14;;;;;;;2.67;1.93;;;12.60;88.30;;;;;;5120688;27;20761;-72
2023/10/08 06:45:42;;;;;;;1.43;1.33;;;12.60;89.30;;;;;;5120375;27;20641;-74
2023/10/08 06:48:09;;;;;;;3.73;2.23;;;12.60;89.30;;;;;;5121109;27;20618;-74
2023/10/08 06:50:36;;;;;;;4.70;2.47;;;12.70;89.60;;;;;;5120387;27;20804;-73
2023/10/08 06:53:07;;;;;;;4.57;2.63;;;12.70;89.20;;;;;;5122089;27;20635;-74
2023/10/08 06:55:35;;;;;;;3.47;2.30;;;12.70;88.80;;;;;;5121507;27;21131;-74
2023/10/08 06:58:08;;;;;;;2.90;2.03;;;12.70;90.00;;;;;;5111073;27;20680;-73
2023/10/08 07:00:42;;;;;;;3.40;3.10;;;12.70;90.00;;;;;;5108126;27;20623;-72
2023/10/08 07:03:10;;;;;;;5.83;1.67;;;12.80;90.30;;;;;;5108474;27;20675;-73
2023/10/08 07:05:40;;;;;;;5.37;2.30;;;12.80;90.20;;;;;;5107825;27;20634;-72
2023/10/08 07:08:12;;;;;;;3.17;2.53;;;12.90;90.00;;;;;;5107434;27;20632;-72
2023/10/08 07:10:40;;;;;;;3.43;2.60;;;12.90;90.20;;;;;;5107651;27;20628;-73
2023/10/08 07:13:08;;;;;;;5.17;3.20;;;13.00;90.30;;;;;;5106933;27;20631;-73
2023/10/08 07:15:38;;;;;;;5.40;3.50;;;13.20;90.10;;;;;;5106104;27;20631;-72
2023/10/08 07:18:12;;;;;;;6.40;3.10;;;13.30;87.80;;;;;;5107712;27;20636;-75
2023/10/08 07:20:41;;;;;;;2.07;1.87;;;13.50;89.40;;;;;;5108272;27;20626;-73
2023/10/08 07:23:18;;;;;;;3.60;2.20;;;13.50;89.60;;;;;;5106364;27;20664;-74
2023/10/08 07:25:51;;;;;;;5.20;2.60;;;13.70;90.10;;;;;;5105986;27;20643;-73
2023/10/08 07:28:19;;;;;;;2.53;1.70;;;13.70;89.80;;;;;;5108103;27;20723;-72
2023/10/08 07:30:49;;;;;;;5.40;2.63;;;13.80;89.90;;;;;;5098134;27;20786;-74
2023/10/08 07:33:18;;;;;;;3.07;2.00;;;13.90;90.70;;;;;;5104233;27;20625;-75
2023/10/08 07:35:54;;;;;;;3.00;1.70;;;14.10;89.80;;;;;;5109497;27;20896;-74
2023/10/08 07:38:22;;;;;;;3.17;1.80;;;14.40;88.60;;;;;;5112707;27;21833;-73
2023/10/08 07:40:49;;;;;;;1.23;1.13;;;14.60;87.60;;;;;;5114240;27;20628;-73
2023/10/08 07:43:20;;;;;;;2.60;1.83;;;14.70;85.90;;;;;;5112648;27;20670;-72
2023/10/08 07:45:48;;;;;;;3.03;1.73;;;14.80;85.60;;;;;;5111388;27;20733;-72
2023/10/08 07:48:15;;;;;;;3.40;1.80;;;14.90;88.90;;;;;;5112165;27;20745;-72
2023/10/08 07:50:46;;;;;;;2.67;2.10;;;15.00;86.50;;;;;;5109069;27;20998;-72
2023/10/08 07:53:17;;;;;;;8.57;2.23;;;15.10;90.10;;;;;;5106571;27;20628;-73
2023/10/08 07:55:48;;;;;;;5.63;2.00;;;15.20;86.80;;;;;;5098035;27;20623;-73
2023/10/08 07:58:16;;;;;;;2.63;2.40;;;15.40;85.40;;;;;;5097985;27;21072;-72
2023/10/08 08:00:51;;;;;;;2.63;2.13;;;15.50;84.10;;;;;;5096491;27;20634;-73
2023/10/08 08:03:20;;;;;;;8.60;2.53;;;15.70;83.20;;;;;;5098038;27;20652;-71
2023/10/08 08:05:47;;;;;;;2.43;2.00;;;15.90;83.10;;;;;;5096599;27;20720;-73
2023/10/08 08:08:17;;;;;;;4.03;1.93;;;16.00;84.00;;;;;;5096424;27;20648;-73
2023/10/08 08:10:46;;;;;;;2.67;1.80;;;16.00;84.20;;;;;;5091712;27;20628;-72
2023/10/08 08:13:20;;;;;;;1.90;1.43;;;16.10;83.50;;;;;;5092192;27;20631;-71
2023/10/08 08:15:50;;;;;;;2.77;2.50;;;16.20;83.30;;;;;;5097832;27;20626;-71
2023/10/08 08:18:23;;;;;;;2.17;1.97;;;16.20;86.10;;;;;;5100444;27;20630;-71
2023/10/08 08:20:50;;;;;;;5.90;2.20;;;16.20;86.60;;;;;;5098683;27;20625;-71
2023/10/08 08:23:17;;;;;;;2.47;1.80;;;16.20;84.50;;;;;;5097587;27;20663;-71
2023/10/08 08:26:05;;;;;;;5.50;2.40;;;16.20;86.30;;;;;;5096654;27;20717;-72
2023/10/08 08:28:32;;;;;;;8.80;2.00;;;16.20;86.50;;;;;;5098941;27;20635;-72
2023/10/08 08:31:04;;;;;;;6.80;2.63;;;16.20;87.20;;;;;;5098916;27;21006;-72
2023/10/08 08:33:52;;;;;;;3.40;1.47;;;16.40;88.20;;;;;;5098553;27;20941;-72
2023/10/08 08:36:19;;;;;;;1.90;1.70;;;16.50;84.70;;;;;;5097681;27;21232;-71
2023/10/08 08:38:45;;;;;;;3.07;2.00;;;16.70;83.60;;;;;;5097663;27;20624;-72
2023/10/08 08:41:12;;;;;;;3.93;2.47;;;16.90;82.00;;;;;;5096071;27;20643;-72
2023/10/08 08:43:43;;;;;;;5.30;2.03;;;17.00;83.00;;;;;;5095597;27;20663;-72
2023/10/08 08:46:12;;;;;;;3.90;2.30;;;17.10;82.90;;;;;;5090840;27;21009;-71
2023/10/08 08:48:41;;;;;;;8.33;2.20;;;17.20;81.90;;;;;;5090857;27;20758;-72
2023/10/08 08:51:10;;;;;;;5.03;1.83;;;17.20;84.20;;;;;;5092467;27;20623;-71
2023/10/08 08:53:47;;;;;;;3.57;2.03;;;17.30;83.10;;;;;;5091573;27;21270;-71
2023/10/08 08:56:17;;;;;;;4.90;2.57;;;17.30;82.60;;;;;;5088018;27;21181;-72
2023/10/08 08:58:47;;;;;;;2.77;2.50;;;17.30;82.50;;;;;;5090362;27;20624;-71
2023/10/08 09:01:20;;;;;;;2.97;1.80;;;17.40;81.70;;;;;;5091011;27;20678;-72
2023/10/08 09:03:50;;;;;;;6.60;2.03;;;17.50;81.10;;;;;;5089853;27;20660;-72
2023/10/08 09:06:17;;;;;;;4.93;3.07;;;17.50;82.70;;;;;;5089531;27;20628;-71
2023/10/08 09:08:45;;;;;;;4.47;2.63;;;17.40;81.30;;;;;;5090144;27;21014;-71
2023/10/08 09:11:15;;;;;;;4.17;2.30;;;17.40;81.30;;;;;;5090483;27;20720;-71
2023/10/08 09:13:43;;;;;;;4.23;2.03;;;17.40;81.00;;;;;;5090723;27;20639;-71
2023/10/08 09:16:13;;;;;;;6.33;2.20;;;17.30;82.20;;;;;;5088763;27;20640;-71
2023/10/08 09:18:41;;;;;;;3.43;1.57;;;17.40;81.50;;;;;;5091382;27;20633;-71
2023/10/08 09:21:11;;;;;;;12.93;2.23;;;17.50;79.60;;;;;;5090100;27;20621;-71
2023/10/08 09:23:43;;;;;;;4.50;2.30;;;17.60;79.50;;;;;;5089788;27;21249;-71
2023/10/08 09:26:10;;;;;;;6.60;2.40;;;17.70;81.10;;;;;;5090584;27;20620;-71
2023/10/08 09:28:40;;;;;;;3.37;1.90;;;17.90;80.90;;;;;;5090572;27;21192;-71
2023/10/08 09:31:11;;;;;;;3.90;1.93;;;18.00;78.50;;;;;;5091677;27;20636;-71
2023/10/08 09:33:38;;;;;;;5.80;2.10;;;18.40;78.70;;;;;;5091509;27;21176;-71
2023/10/08 09:36:07;;;;;;;2.10;1.40;;;18.50;78.30;;;;;;5089526;27;20997;-71
2023/10/08 09:38:36;;;;;;;5.97;2.37;;;18.70;74.30;;;;;;5090984;27;20629;-71
2023/10/08 09:41:04;;;;;;;4.77;2.30;;;18.80;77.60;;;;;;5090570;27;20650;-71
2023/10/08 09:43:31;;;;;;;4.43;3.13;;;18.80;78.60;;;;;;5092775;27;20675;-71
2023/10/08 09:46:08;;;;;;;3.50;2.20;;;18.90;77.30;;;;;;5090682;27;20791;-71
2023/10/08 09:48:38;;;;;;;3.43;2.00;;;19.00;78.20;;;;;;5089790;27;20623;-71
2023/10/08 09:51:07;;;;;;;3.07;1.83;;;19.20;80.70;;;;;;5091689;27;20630;-71
2023/10/08 09:53:44;;;;;;;3.73;1.63;;;19.20;76.20;;;;;;5090221;27;20638;-71
2023/10/08 09:56:15;;;;;;;2.10;1.67;;;19.30;74.50;;;;;;5090933;27;20638;-71
2023/10/08 09:58:43;;;;;;;3.83;2.07;;;19.50;78.80;;;;;;5090018;27;20639;-71
2023/10/08 10:01:11;;;;;;;4.10;1.83;;;19.50;77.10;;;;;;5090637;27;20727;-72
2023/10/08 10:03:41;;;;;;;4.77;2.03;;;19.60;78.30;;;;;;5090386;27;20714;-71
2023/10/08 10:06:14;;;;;;;3.53;2.43;;;19.70;77.50;;;;;;5087973;27;20871;-75
2023/10/08 10:08:43;;;;;;;4.67;2.40;;;19.70;77.00;;;;;;5090348;27;20667;-72
2023/10/08 10:11:10;;;;;;;2.37;2.03;;;19.60;76.20;;;;;;5090589;27;20625;-72
2023/10/08 10:13:40;;;;;;;3.00;1.67;;;19.70;77.50;;;;;;5090998;27;20638;-72
2023/10/08 10:16:08;;;;;;;3.83;2.13;;;19.70;79.60;;;;;;5089293;27;20625;-72
2023/10/08 10:18:35;;;;;;;3.47;2.07;;;19.80;78.90;;;;;;5090115;27;20605;-71
2023/10/08 10:21:27;;;;;;;2.93;2.13;;;20.00;75.40;;;;;;5091247;27;20632;-72
2023/10/08 10:23:56;;;;;;;3.40;2.00;;;20.10;74.30;;;;;;5090338;27;20664;-72
2023/10/08 10:26:28;;;;;;;5.27;2.07;;;20.20;75.70;;;;;;5089785;27;20611;-72
2023/10/08 10:29:25;;;;;;;2.53;2.10;;;20.30;77.10;;;;;;5089474;27;20640;-74
2023/10/08 10:31:54;;;;;;;4.43;2.10;;;20.40;76.10;;;;;;5088570;28;20728;-74
2023/10/08 10:34:23;;;;;;;4.07;2.83;;;20.30;77.70;;;;;;5089512;27;20827;-74
2023/10/08 10:36:55;;;;;;;5.50;2.20;;;20.30;73.70;;;;;;5088681;28;20640;-74
2023/10/08 10:39:29;;;;;;;4.23;2.40;;;20.30;77.10;;;;;;5088651;28;20632;-74
2023/10/08 10:42:01;;;;;;;2.60;2.30;;;20.40;78.30;;;;;;5090233;28;20987;-74
2023/10/08 10:44:29;;;;;;;5.50;3.00;;;20.40;77.10;;;;;;5090182;28;21782;-74
2023/10/08 10:47:25;;;;;;;6.90;2.37;;;20.40;77.30;;;;;;5089988;28;20704;-74
2023/10/08 10:49:52;;;;;;;6.70;3.10;;;20.40;73.70;;;;;;5089562;28;20625;-74
2023/10/08 10:52:31;;;;;;;2.80;2.17;;;20.40;76.40;;;;;;5089314;28;22173;-74
2023/10/08 10:55:18;;;;;;;14.60;2.60;;;20.40;77.50;;;;;;5088935;28;20660;-73
2023/10/08 10:57:55;;;;;;;4.93;2.10;;;20.50;76.50;;;;;;5088711;28;20723;-73
2023/10/08 11:03:15;;;;;;;3.40;2.47;;;20.80;74.70;;;;;;5090251;28;20815;-73
2023/10/08 11:05:47;;;;;;;4.10;2.20;;;20.90;76.60;;;;;;5088832;28;20790;-73
2023/10/08 11:08:18;;;;;;;4.90;2.60;;;21.00;73.80;;;;;;5090030;28;20625;-72
2023/10/08 11:10:50;;;;;;;3.17;2.87;;;21.10;73.80;;;;;;5088998;28;20632;-73
2023/10/08 11:13:19;;;;;;;5.63;2.20;;;21.20;73.60;;;;;;5090728;28;20643;-72
2023/10/08 11:15:49;;;;;;;4.23;2.10;;;21.20;72.50;;;;;;5090154;28;20620;-72
2023/10/08 11:18:17;;;;;;;2.27;1.83;;;21.30;75.00;;;;;;5093878;28;20671;-72
2023/10/08 11:20:45;;;;;;;4.80;2.70;;;21.40;75.00;;;;;;5093587;28;20627;-72
2023/10/08 11:23:21;;;;;;;2.83;1.97;;;21.30;75.80;;;;;;5093058;28;20982;-73
2023/10/08 11:25:59;;;;;;;4.50;1.70;;;21.30;75.20;;;;;;5095235;28;20885;-73
2023/10/08 11:28:27;;;;;;;3.57;2.47;;;21.30;76.30;;;;;;5097366;27;20997;-72
2023/10/08 11:30:54;;;;;;;4.20;2.60;;;21.30;76.00;;;;;;5097808;27;20627;-72
2023/10/08 11:33:21;;;;;;;4.00;2.43;;;21.30;75.60;;;;;;5101121;27;20623;-73
2023/10/08 11:35:59;;;;;;;5.33;2.50;;;21.20;76.20;;;;;;5098973;27;20882;-73
2023/10/08 11:38:27;;;;;;;2.20;1.67;;;21.30;80.70;;;;;;5099348;27;20611;-73
2023/10/08 11:41:20;;;;;;;6.07;2.10;;;21.20;78.10;;;;;;5091481;27;21329;-72
2023/10/08 11:43:48;;;;;;;2.40;2.20;;;21.10;74.80;;;;;;5092389;27;20706;-71
2023/10/08 11:46:18;;;;;;;5.77;3.03;;;21.20;75.30;;;;;;5092072;27;20980;-71
2023/10/08 11:48:46;;;;;;;5.53;3.47;;;21.30;74.30;;;;;;5092260;27;20631;-71
2023/10/08 11:51:16;;;;;;;2.47;2.07;;;21.40;71.60;;;;;;5092678;27;20633;-71
2023/10/08 11:53:44;;;;;;;4.03;2.57;;;21.50;75.70;;;;;;5091927;27;20660;-71
2023/10/08 11:56:14;;;;;;;4.23;2.73;;;21.60;72.60;;;;;;5090713;27;20630;-70
2023/10/08 11:58:44;;;;;;;5.27;2.67;;;21.70;73.50;;;;;;5091586;27;20628;-70
2023/10/08 12:01:15;;;;;;;4.13;2.10;;;21.90;73.50;;;;;;5091703;27;21189;-70
2023/10/08 12:03:45;;;;;;;6.30;2.83;;;21.90;75.00;;;;;;5092415;27;20666;-71
2023/10/08 12:06:15;;;;;;;3.30;2.47;;;21.90;72.40;;;;;;5091870;27;20663;-71
2023/10/08 12:08:45;;;;;;;8.93;2.40;;;21.90;73.60;;;;;;5091668;27;20607;-71
2023/10/08 12:11:14;;;;;;;3.00;1.80;;;21.90;75.70;;;;;;5090430;27;20628;-71
2023/10/08 12:13:44;;;;;;;3.63;2.27;;;21.90;73.30;;;;;;5091080;27;20625;-71
2023/10/08 12:16:18;;;;;;;4.40;2.60;;;21.80;73.10;;;;;;5091287;27;21037;-71
2023/10/08 12:18:48;;;;;;;6.07;1.93;;;21.80;73.40;;;;;;5091924;27;21396;-71
2023/10/08 12:21:15;;;;;;;3.97;2.60;;;21.90;73.50;;;;;;5091935;27;20635;-71
2023/10/08 12:23:45;;;;;;;3.97;2.60;;;21.90;72.90;;;;;;5092325;27;20716;-71
2023/10/08 12:26:22;;;;;;;3.67;2.40;;;22.00;71.90;;;;;;5089942;27;20605;-71
2023/10/08 12:28:50;;;;;;;5.50;3.47;;;22.10;70.60;;;;;;5089555;27;20714;-70
2023/10/08 12:31:20;;;;;;;4.33;3.00;;;22.10;71.00;;;;;;5092291;27;20749;-70
2023/10/08 12:33:48;;;;;;;6.37;3.30;;;22.10;71.30;;;;;;5091396;27;20638;-70
2023/10/08 12:36:16;;;;;;;9.87;2.37;;;22.10;71.40;;;;;;5090090;27;21025;-70
2023/10/08 12:38:44;;;;;;;4.90;2.10;;;22.20;71.90;;;;;;5092854;27;20652;-70
2023/10/08 12:41:16;;;;;;;3.43;2.50;;;22.20;71.40;;;;;;5090133;27;20624;-70
2023/10/08 12:43:46;;;;;;;7.60;3.03;;;22.20;72.20;;;;;;5091013;27;20677;-70
2023/10/08 12:46:18;;;;;;;5.17;2.17;;;22.20;72.00;;;;;;5090855;27;20627;-70
2023/10/08 12:48:47;;;;;;;3.10;2.40;;;22.20;72.40;;;;;;5091059;27;21594;-71
2023/10/08 12:51:15;;;;;;;6.07;2.30;;;22.30;72.40;;;;;;5088630;27;21042;-70
2023/10/08 12:53:50;;;;;;;5.77;2.40;;;22.30;75.30;;;;;;5091674;27;20644;-70
2023/10/08 12:56:21;;;;;;;3.60;2.60;;;22.40;70.70;;;;;;5091186;27;20622;-70
2023/10/08 12:58:49;;;;;;;10.23;2.93;;;22.40;70.10;;;;;;5091328;27;20631;-71
2023/10/08 13:01:18;;;;;;;5.23;2.40;;;22.50;71.00;;;;;;5090819;27;20644;-70
2023/10/08 13:03:48;;;;;;;11.20;3.10;;;22.60;70.40;;;;;;5089908;27;20773;-70
2023/10/08 13:06:21;;;;;;;6.73;2.40;;;22.70;71.20;;;;;;5087786;27;20627;-70
2023/10/08 13:08:49;;;;;;;3.70;2.30;;;22.80;70.60;;;;;;5091228;27;20642;-71
2023/10/08 13:11:22;;;;;;;4.13;1.90;;;22.80;71.60;;;;;;5091358;27;20621;-71
2023/10/08 13:13:50;;;;;;;8.07;2.70;;;22.80;73.20;;;;;;5091288;27;20619;-71
2023/10/08 13:16:18;;;;;;;3.03;2.13;;;22.70;74.80;;;;;;5089093;27;21223;-70
2023/10/08 13:18:45;;;;;;;3.63;2.30;;;22.70;71.70;;;;;;5088017;27;20620;-70
2023/10/08 13:21:12;;;;;;;7.90;2.50;;;22.80;70.40;;;;;;5088735;27;21095;-70
2023/10/08 13:23:39;;;;;;;3.80;2.43;;;22.80;71.90;;;;;;5090459;27;20651;-71
2023/10/08 13:26:07;;;;;;;12.10;3.57;;;22.90;71.40;;;;;;5089654;27;20710;-71
2023/10/08 13:28:34;;;;;;;7.77;2.30;;;22.90;70.80;;;;;;5090842;27;21217;-70